Time;durP1;ratioP1;P1;durP2;ratioP2;P2;SDS_P1;SDS_P2;PMS_P1;PMS_P2;Temp;Humidity;BMP_temperature;BMP_pressure;BME280_temperature;BME280_humidity;BME280_pressure;Samples;Min_cycle;Max_cycle;Signal;HPM_P1;HPM_P2
2022/04/02 00:00:24;;;;;;;;;;;12.90;71.20;;;;;;4998728;28;19914;-61
2022/04/02 00:02:50;;;;;;;;;;;12.90;71.30;;;;;;5002574;28;19910;-60
2022/04/02 00:05:15;;;;;;;;;;;12.80;71.30;;;;;;4997945;28;19909;-60
2022/04/02 00:07:41;;;;;;;;;;;12.80;71.50;;;;;;4997994;28;20278;-60
2022/04/02 00:10:07;;;;;;;;;;;12.60;71.60;;;;;;4997404;28;19909;-60
2022/04/02 00:12:33;;;;;;;;;;;12.50;72.20;;;;;;4997532;28;19992;-60
2022/04/02 00:14:58;;;;;;;;;;;12.60;72.30;;;;;;4997590;28;19910;-60
2022/04/02 00:17:24;;;;;;;;;;;12.60;72.20;;;;;;4997447;28;19996;-60
2022/04/02 00:19:49;;;;;;;;;;;12.70;71.50;;;;;;4997030;28;19918;-58
2022/04/02 00:22:16;;;;;;;;;;;12.70;71.00;;;;;;4997353;28;20000;-58
2022/04/02 00:24:42;;;;;;;;;;;12.70;71.00;;;;;;4997293;28;19964;-61
2022/04/02 00:27:08;;;;;;;;;;;12.70;72.30;;;;;;4997216;28;20281;-58
2022/04/02 00:29:38;;;;;;;;;;;12.70;71.30;;;;;;4997033;28;19913;-58
2022/04/02 00:32:04;;;;;;;;;;;12.80;71.30;;;;;;4997157;28;20420;-61
2022/04/02 00:34:30;;;;;;;;;;;12.80;71.60;;;;;;4997011;28;19922;-61
2022/04/02 00:36:56;;;;;;;;;;;12.70;71.30;;;;;;4997005;28;20389;-60
2022/04/02 00:39:21;;;;;;;;;;;12.70;71.30;;;;;;4996658;28;20340;-60
2022/04/02 00:41:47;;;;;;;;;;;12.70;71.70;;;;;;4996649;28;19914;-60
2022/04/02 00:44:13;;;;;;;;;;;12.80;71.20;;;;;;4996690;28;19913;-59
2022/04/02 00:46:40;;;;;;;;;;;12.80;71.20;;;;;;4996359;28;19956;-58
2022/04/02 00:49:06;;;;;;;;;;;13.00;70.80;;;;;;4996620;28;19914;-59
2022/04/02 00:51:32;;;;;;;;;;;12.80;70.90;;;;;;4997245;28;19910;-58
2022/04/02 00:53:59;;;;;;;;;;;12.90;71.20;;;;;;4996355;28;19916;-59
2022/04/02 00:56:24;;;;;;;;;;;12.80;71.00;;;;;;4996335;28;19965;-58
2022/04/02 00:58:50;;;;;;;;;;;12.70;71.60;;;;;;4996160;28;19918;-60
2022/04/02 01:01:16;;;;;;;;;;;12.60;71.90;;;;;;4996466;28;20321;-58
2022/04/02 01:03:42;;;;;;;;;;;12.50;72.90;;;;;;4996212;28;20013;-58
2022/04/02 01:06:10;;;;;;;;;;;12.50;73.10;;;;;;4996177;28;20377;-58
2022/04/02 01:08:36;;;;;;;;;;;12.50;73.40;;;;;;4996106;28;20325;-58
2022/04/02 01:11:03;;;;;;;;;;;12.50;73.20;;;;;;4995625;28;19922;-58
2022/04/02 01:13:29;;;;;;;;;;;12.50;74.00;;;;;;4996104;28;19910;-58
2022/04/02 01:15:56;;;;;;;;;;;12.40;73.80;;;;;;4996004;28;20496;-58
2022/04/02 01:18:22;;;;;;;;;;;12.50;73.70;;;;;;4995901;28;20262;-59
2022/04/02 01:20:48;;;;;;;;;;;12.40;74.50;;;;;;4996046;28;19921;-58
2022/04/02 01:23:14;;;;;;;;;;;12.40;73.90;;;;;;4996363;28;19927;-59
2022/04/02 01:25:40;;;;;;;;;;;12.30;75.00;;;;;;4995958;28;19914;-58
2022/04/02 01:28:06;;;;;;;;;;;12.30;74.40;;;;;;4996492;28;19910;-59
2022/04/02 01:30:31;;;;;;;;;;;12.30;73.40;;;;;;4998999;28;19916;-59
2022/04/02 01:32:57;;;;;;;;;;;12.30;74.10;;;;;;4995674;28;20020;-58
2022/04/02 01:35:23;;;;;;;;;;;12.50;73.60;;;;;;4995766;28;19909;-58
2022/04/02 01:37:49;;;;;;;;;;;12.30;74.40;;;;;;4995864;28;19914;-61
2022/04/02 01:40:15;;;;;;;;;;;12.30;75.00;;;;;;4995662;28;20486;-59
2022/04/02 01:42:40;;;;;;;;;;;12.30;74.10;;;;;;4995726;28;19910;-58
2022/04/02 01:45:06;;;;;;;;;;;12.30;74.00;;;;;;4995494;28;19909;-59
2022/04/02 01:47:32;;;;;;;;;;;12.30;74.10;;;;;;4995297;28;19917;-60
2022/04/02 01:49:57;;;;;;;;;;;12.30;74.10;;;;;;4995292;28;20492;-58
2022/04/02 01:52:23;;;;;;;;;;;12.40;74.20;;;;;;5003886;28;19941;-58
2022/04/02 01:54:49;;;;;;;;;;;12.40;73.70;;;;;;4997126;28;19950;-58
2022/04/02 01:57:15;;;;;;;;;;;12.30;74.90;;;;;;4996027;28;19910;-58
2022/04/02 01:59:44;;;;;;;;;;;12.30;74.80;;;;;;4996652;28;19917;-58
2022/04/02 02:02:10;;;;;;;;;;;12.30;73.90;;;;;;4996565;28;20362;-59
2022/04/02 02:04:36;;;;;;;;;;;12.40;73.70;;;;;;4995382;28;19910;-58
2022/04/02 02:07:06;;;;;;;;;;;12.40;73.50;;;;;;4995370;28;19910;-58
2022/04/02 02:09:32;;;;;;;;;;;12.30;73.70;;;;;;4994806;28;19958;-59
2022/04/02 02:11:58;;;;;;;;;;;12.30;73.80;;;;;;4995321;28;19964;-58
2022/04/02 02:14:24;;;;;;;;;;;12.20;73.80;;;;;;4994839;28;19914;-58
2022/04/02 02:16:49;;;;;;;;;;;12.20;73.90;;;;;;4994979;28;20063;-58
2022/04/02 02:19:15;;;;;;;;;;;12.20;74.20;;;;;;4995118;28;19925;-58
2022/04/02 02:21:41;;;;;;;;;;;12.20;74.10;;;;;;4994111;28;20270;-58
2022/04/02 02:24:06;;;;;;;;;;;12.30;73.30;;;;;;4994916;28;19992;-58
2022/04/02 02:26:32;;;;;;;;;;;12.20;73.20;;;;;;4994931;28;20358;-58
2022/04/02 02:28:58;;;;;;;;;;;12.10;73.00;;;;;;4995033;28;20366;-58
2022/04/02 02:31:24;;;;;;;;;;;12.10;73.60;;;;;;4994965;28;19965;-58
2022/04/02 02:36:33;;;;;;;;;;;12.10;73.40;;;;;;4994606;28;20246;-60
2022/04/02 02:38:59;;;;;;;;;;;12.10;72.70;;;;;;4994438;28;19918;-58
2022/04/02 02:41:24;;;;;;;;;;;12.20;72.30;;;;;;4994684;28;20358;-58
2022/04/02 02:43:50;;;;;;;;;;;12.10;72.10;;;;;;4994374;28;20389;-58
2022/04/02 02:46:17;;;;;;;;;;;12.10;71.10;;;;;;4994553;28;19910;-58
2022/04/02 02:48:46;;;;;;;;;;;12.10;70.40;;;;;;4994776;28;19909;-59
2022/04/02 02:51:11;;;;;;;;;;;11.90;71.50;;;;;;4995312;28;19910;-58
2022/04/02 02:53:37;;;;;;;;;;;11.70;71.40;;;;;;4996184;28;19937;-58
2022/04/02 02:56:03;;;;;;;;;;;11.60;72.60;;;;;;4996224;28;19964;-58
2022/04/02 02:58:28;;;;;;;;;;;11.60;72.20;;;;;;4994668;28;19914;-58
2022/04/02 03:00:54;;;;;;;;;;;11.70;73.60;;;;;;4994828;28;19953;-58
2022/04/02 03:03:22;;;;;;;;;;;11.50;74.60;;;;;;4994526;28;19914;-58
2022/04/02 03:05:50;;;;;;;;;;;11.50;77.00;;;;;;4994698;28;19956;-58
2022/04/02 03:08:16;;;;;;;;;;;11.40;78.50;;;;;;4996130;28;19997;-58
2022/04/02 03:10:42;;;;;;;;;;;11.30;79.80;;;;;;4995721;28;19996;-58
2022/04/02 03:13:07;;;;;;;;;;;11.20;80.00;;;;;;4995176;28;20280;-58
2022/04/02 03:15:33;;;;;;;;;;;11.20;80.80;;;;;;4994179;28;19909;-58
2022/04/02 03:18:03;;;;;;;;;;;11.30;80.00;;;;;;4994374;28;19910;-58
2022/04/02 03:20:29;;;;;;;;;;;11.20;80.50;;;;;;4993938;28;19913;-58
2022/04/02 03:22:54;;;;;;;;;;;11.20;82.10;;;;;;4994300;28;20008;-58
2022/04/02 03:25:21;;;;;;;;;;;11.20;77.80;;;;;;4993952;28;19913;-58
2022/04/02 03:27:47;;;;;;;;;;;11.20;77.70;;;;;;4994089;28;19964;-58
2022/04/02 03:30:13;;;;;;;;;;;11.40;76.60;;;;;;4993609;28;19960;-60
2022/04/02 03:32:39;;;;;;;;;;;11.40;76.10;;;;;;4995252;28;19917;-58
2022/04/02 03:35:05;;;;;;;;;;;11.40;75.10;;;;;;4997575;28;19913;-59
2022/04/02 03:37:31;;;;;;;;;;;11.40;75.30;;;;;;4998566;28;19910;-58
2022/04/02 03:39:57;;;;;;;;;;;11.40;75.60;;;;;;4998180;28;19925;-58
2022/04/02 03:42:23;;;;;;;;;;;11.30;75.30;;;;;;5006098;28;19973;-58
2022/04/02 03:44:48;;;;;;;;;;;11.00;77.90;;;;;;5002096;28;19910;-58
2022/04/02 03:47:15;;;;;;;;;;;11.10;76.90;;;;;;4998262;28;20254;-58
2022/04/02 03:49:45;;;;;;;;;;;11.10;76.60;;;;;;4998208;28;19909;-58
2022/04/02 03:52:11;;;;;;;;;;;11.20;76.30;;;;;;4998363;28;19964;-59
2022/04/02 03:54:38;;;;;;;;;;;11.10;77.20;;;;;;4998115;28;19964;-58
2022/04/02 03:57:08;;;;;;;;;;;11.00;77.70;;;;;;5002327;28;20381;-58
2022/04/02 03:59:34;;;;;;;;;;;11.10;76.70;;;;;;5002142;28;20250;-58
2022/04/02 04:02:00;;;;;;;;;;;11.10;76.30;;;;;;4999694;28;19914;-58
2022/04/02 04:04:26;;;;;;;;;;;11.00;76.70;;;;;;4998974;28;19961;-58
2022/04/02 04:06:52;;;;;;;;;;;11.20;76.40;;;;;;4999521;28;20382;-59
2022/04/02 04:09:18;;;;;;;;;;;11.10;76.30;;;;;;4998332;28;20291;-58
2022/04/02 04:11:44;;;;;;;;;;;11.10;77.10;;;;;;4997719;28;20485;-59
2022/04/02 04:14:09;;;;;;;;;;;11.10;77.70;;;;;;4997373;28;19953;-58
2022/04/02 04:16:35;;;;;;;;;;;11.20;77.00;;;;;;4998035;28;20238;-59
2022/04/02 04:19:01;;;;;;;;;;;11.00;77.40;;;;;;4997813;28;19917;-58
2022/04/02 04:21:26;;;;;;;;;;;11.00;78.30;;;;;;4997513;28;19964;-58
2022/04/02 04:23:52;;;;;;;;;;;11.10;77.20;;;;;;4997531;28;19910;-58
2022/04/02 04:26:17;;;;;;;;;;;11.00;76.60;;;;;;4997192;28;20021;-58
2022/04/02 04:28:43;;;;;;;;;;;11.10;76.10;;;;;;4997359;28;19910;-58
2022/04/02 04:31:09;;;;;;;;;;;11.00;76.30;;;;;;4997311;28;19914;-58
2022/04/02 04:33:35;;;;;;;;;;;11.00;76.70;;;;;;4997461;28;19917;-58
2022/04/02 04:36:01;;;;;;;;;;;10.90;76.80;;;;;;4997016;28;20298;-59
2022/04/02 04:38:26;;;;;;;;;;;10.90;76.30;;;;;;5000387;28;19933;-58
2022/04/02 04:40:52;;;;;;;;;;;10.90;76.00;;;;;;4998283;28;19925;-59
2022/04/02 04:43:17;;;;;;;;;;;10.90;76.30;;;;;;4997827;28;20001;-58
2022/04/02 04:45:43;;;;;;;;;;;10.90;75.30;;;;;;4997563;28;20004;-58
2022/04/02 04:48:08;;;;;;;;;;;10.90;75.50;;;;;;4997369;28;19910;-58
2022/04/02 04:50:35;;;;;;;;;;;10.90;75.60;;;;;;4997881;28;19909;-58
2022/04/02 04:53:00;;;;;;;;;;;10.50;76.20;;;;;;4997933;28;19926;-58
2022/04/02 04:55:26;;;;;;;;;;;10.60;77.20;;;;;;4997886;28;19910;-58
2022/04/02 04:57:52;;;;;;;;;;;10.70;77.70;;;;;;4997100;28;20354;-59
2022/04/02 05:00:18;;;;;;;;;;;10.60;78.40;;;;;;4996790;28;20025;-58
2022/04/02 05:02:44;;;;;;;;;;;10.70;78.50;;;;;;4996949;28;19910;-58
2022/04/02 05:05:11;;;;;;;;;;;10.70;77.70;;;;;;4996936;28;19916;-58
2022/04/02 05:07:38;;;;;;;;;;;10.70;77.80;;;;;;4996748;28;19945;-58
2022/04/02 05:10:04;;;;;;;;;;;10.60;78.40;;;;;;4997495;28;19910;-58
2022/04/02 05:12:30;;;;;;;;;;;10.40;77.70;;;;;;4996702;28;19955;-58
2022/04/02 05:14:56;;;;;;;;;;;10.50;78.30;;;;;;4995401;28;19917;-58
2022/04/02 05:17:21;;;;;;;;;;;10.60;78.60;;;;;;4996358;28;19910;-58
2022/04/02 05:19:48;;;;;;;;;;;10.60;78.00;;;;;;4996852;28;19921;-58
2022/04/02 05:22:13;;;;;;;;;;;10.50;78.20;;;;;;4996813;28;19969;-58
2022/04/02 05:24:39;;;;;;;;;;;10.50;79.60;;;;;;4996548;28;19910;-58
2022/04/02 05:27:04;;;;;;;;;;;10.50;79.50;;;;;;4996774;28;19909;-58
2022/04/02 05:29:30;;;;;;;;;;;10.50;79.50;;;;;;4997355;28;19996;-60
2022/04/02 05:31:55;;;;;;;;;;;10.60;78.90;;;;;;4996936;28;19937;-59
2022/04/02 05:34:21;;;;;;;;;;;10.60;79.20;;;;;;4996535;28;19922;-59
2022/04/02 05:36:46;;;;;;;;;;;10.60;78.10;;;;;;4996311;28;19910;-58
2022/04/02 05:39:12;;;;;;;;;;;10.60;79.10;;;;;;4996642;28;19918;-59
2022/04/02 05:41:38;;;;;;;;;;;10.50;79.10;;;;;;4996854;28;19940;-59
2022/04/02 05:44:07;;;;;;;;;;;10.40;79.40;;;;;;4996465;28;19918;-59
2022/04/02 05:46:32;;;;;;;;;;;10.50;79.30;;;;;;5006276;28;19894;-58
2022/04/02 05:48:58;;;;;;;;;;;10.50;79.50;;;;;;5003297;28;19910;-59
2022/04/02 05:51:24;;;;;;;;;;;10.40;79.30;;;;;;4996805;28;19910;-59
2022/04/02 05:53:49;;;;;;;;;;;10.50;79.10;;;;;;4996819;28;19977;-58
2022/04/02 05:56:15;;;;;;;;;;;10.50;78.20;;;;;;4995885;28;19941;-58
2022/04/02 05:58:41;;;;;;;;;;;10.70;76.60;;;;;;4995529;28;19913;-58
2022/04/02 06:01:07;;;;;;;;;;;10.60;77.10;;;;;;4995609;28;19972;-58
2022/04/02 06:03:33;;;;;;;;;;;10.60;77.20;;;;;;4995771;28;20369;-57
2022/04/02 06:05:58;;;;;;;;;;;10.90;79.70;;;;;;4995432;28;19914;-57
2022/04/02 06:08:24;;;;;;;;;;;11.40;79.30;;;;;;4995260;28;19917;-58
2022/04/02 06:10:49;;;;;;;;;;;11.70;76.70;;;;;;4995218;28;19916;-57
2022/04/02 06:13:15;;;;;;;;;;;11.70;73.80;;;;;;4995484;28;19910;-57
2022/04/02 06:15:41;;;;;;;;;;;11.60;74.60;;;;;;4995905;28;19914;-58
2022/04/02 06:18:11;;;;;;;;;;;11.90;74.20;;;;;;4995819;28;19910;-57
2022/04/02 06:20:37;;;;;;;;;;;12.00;72.90;;;;;;4995643;28;19918;-60
2022/04/02 06:23:02;;;;;;;;;;;12.10;71.50;;;;;;4995812;28;19910;-58
2022/04/02 06:25:28;;;;;;;;;;;11.70;72.70;;;;;;4994877;28;20396;-57
2022/04/02 06:27:54;;;;;;;;;;;11.40;73.70;;;;;;4995329;28;19942;-57
2022/04/02 06:30:20;;;;;;;;;;;11.10;75.10;;;;;;4995145;28;19969;-60
2022/04/02 06:32:46;;;;;;;;;;;11.00;76.20;;;;;;4998645;28;19910;-56
2022/04/02 06:35:12;;;;;;;;;;;10.90;76.00;;;;;;5002927;28;20288;-57
2022/04/02 06:37:38;;;;;;;;;;;10.80;76.20;;;;;;4995912;28;19921;-58
2022/04/02 06:40:04;;;;;;;;;;;10.80;76.30;;;;;;4994725;28;20024;-58
2022/04/02 06:42:30;;;;;;;;;;;10.70;77.90;;;;;;4994749;28;19910;-57
2022/04/02 06:44:56;;;;;;;;;;;10.70;78.10;;;;;;4995571;28;19910;-57
2022/04/02 06:47:28;;;;;;;;;;;10.80;77.50;;;;;;4996387;28;19917;-58
2022/04/02 06:49:54;;;;;;;;;;;10.80;77.00;;;;;;4995465;28;20332;-56
2022/04/02 06:52:21;;;;;;;;;;;10.60;77.80;;;;;;4995876;28;20004;-57
2022/04/02 06:54:46;;;;;;;;;;;10.60;78.70;;;;;;4995526;28;20365;-57
2022/04/02 06:57:16;;;;;;;;;;;10.50;80.00;;;;;;4994959;28;19909;-57
2022/04/02 06:59:42;;;;;;;;;;;10.40;80.50;;;;;;4996739;28;19932;-56
2022/04/02 07:02:08;;;;;;;;;;;10.60;79.00;;;;;;4994782;28;19914;-57
2022/04/02 07:04:33;;;;;;;;;;;10.50;79.30;;;;;;4994580;28;20232;-59
2022/04/02 07:06:59;;;;;;;;;;;10.60;78.30;;;;;;4995904;28;20298;-56
2022/04/02 07:09:24;;;;;;;;;;;10.60;79.40;;;;;;5001590;28;19939;-56
2022/04/02 07:11:50;;;;;;;;;;;10.50;78.90;;;;;;5014761;28;19909;-57
2022/04/02 07:14:15;;;;;;;;;;;10.80;78.10;;;;;;5016249;28;19974;-62
2022/04/02 07:16:41;;;;;;;;;;;10.70;78.70;;;;;;5016086;28;19916;-57
2022/04/02 07:19:08;;;;;;;;;;;10.70;79.60;;;;;;5007094;28;19918;-57
2022/04/02 07:21:34;;;;;;;;;;;10.80;79.10;;;;;;5001311;28;20325;-58
2022/04/02 07:23:59;;;;;;;;;;;10.70;78.80;;;;;;5002540;28;19916;-57
2022/04/02 07:26:25;;;;;;;;;;;10.60;78.00;;;;;;5001292;28;19968;-58
2022/04/02 07:28:51;;;;;;;;;;;10.50;78.70;;;;;;5000793;28;19956;-58
2022/04/02 07:31:17;;;;;;;;;;;10.50;78.70;;;;;;5000908;28;19953;-57
2022/04/02 07:33:42;;;;;;;;;;;10.50;78.80;;;;;;5001361;28;19918;-56
2022/04/02 07:36:27;;;;;;;;;;;10.50;79.60;;;;;;5000634;28;20317;-62
2022/04/02 07:39:03;;;;;;;;;;;10.40;80.00;;;;;;4998851;28;19922;-57
2022/04/02 07:41:43;;;;;;;;;;;10.40;79.80;;;;;;4996968;28;19914;-57
2022/04/02 07:44:29;;;;;;;;;;;10.40;81.80;;;;;;4998996;28;19980;-60
2022/04/02 07:46:56;;;;;;;;;;;10.60;82.90;;;;;;5006156;28;19917;-59
2022/04/02 07:49:23;;;;;;;;;;;10.50;81.20;;;;;;4998825;28;20000;-59
2022/04/02 07:51:55;;;;;;;;;;;10.50;81.20;;;;;;5001511;28;19913;-58
2022/04/02 07:54:23;;;;;;;;;;;10.50;78.30;;;;;;5004088;28;19917;-57
2022/04/02 07:56:50;;;;;;;;;;;10.50;76.80;;;;;;5000547;28;19939;-57
2022/04/02 07:59:33;;;;;;;;;;;10.50;75.70;;;;;;5000104;28;19918;-60
2022/04/02 08:01:59;;;;;;;;;;;10.40;75.90;;;;;;5000302;28;20396;-58
2022/04/02 08:04:26;;;;;;;;;;;10.40;75.20;;;;;;5000472;28;20358;-58
2022/04/02 08:06:52;;;;;;;;;;;10.30;76.90;;;;;;5000119;28;19916;-58
2022/04/02 08:09:18;;;;;;;;;;;10.40;77.80;;;;;;5001241;28;19968;-60
2022/04/02 08:11:45;;;;;;;;;;;10.60;76.00;;;;;;5000481;28;19964;-61
2022/04/02 08:14:11;;;;;;;;;;;10.40;75.00;;;;;;5001509;28;19909;-60
2022/04/02 08:16:42;;;;;;;;;;;10.40;77.10;;;;;;5000702;28;19910;-58
2022/04/02 08:19:09;;;;;;;;;;;10.30;78.00;;;;;;4998658;28;19928;-63
2022/04/02 08:21:34;;;;;;;;;;;10.30;77.80;;;;;;4997197;28;19910;-60
2022/04/02 08:24:02;;;;;;;;;;;10.40;78.30;;;;;;4997050;28;19932;-60
2022/04/02 08:26:33;;;;;;;;;;;10.40;79.30;;;;;;4997192;28;20005;-59
2022/04/02 08:29:14;;;;;;;;;;;10.50;77.90;;;;;;4997025;28;20020;-61
2022/04/02 08:31:54;;;;;;;;;;;10.60;77.00;;;;;;4996907;28;19910;-61
2022/04/02 08:34:40;;;;;;;;;;;10.70;75.50;;;;;;4997382;28;19928;-59
2022/04/02 08:37:21;;;;;;;;;;;10.60;76.30;;;;;;4997757;28;19910;-59
2022/04/02 08:39:53;;;;;;;;;;;10.60;77.10;;;;;;4995956;28;19980;-68
2022/04/02 08:42:37;;;;;;;;;;;10.70;76.20;;;;;;4997997;28;19917;-59
2022/04/02 08:45:05;;;;;;;;;;;10.80;74.40;;;;;;4998701;28;19975;-63
2022/04/02 08:47:50;;;;;;;;;;;10.70;74.20;;;;;;5000312;28;19910;-62
2022/04/02 08:50:16;;;;;;;;;;;10.80;73.20;;;;;;4998005;28;19956;-59
2022/04/02 08:53:08;;;;;;;;;;;10.80;73.20;;;;;;4999201;28;19916;-58
2022/04/02 08:55:34;;;;;;;;;;;10.90;74.00;;;;;;4997642;28;19917;-60
2022/04/02 08:58:10;;;;;;;;;;;11.10;72.50;;;;;;4999959;28;19914;-60
2022/04/02 09:00:38;;;;;;;;;;;11.00;73.70;;;;;;4997504;28;19981;-58
2022/04/02 09:03:22;;;;;;;;;;;11.00;74.10;;;;;;5000117;28;20008;-58
2022/04/02 09:06:06;;;;;;;;;;;11.00;73.30;;;;;;4997028;28;19917;-57
2022/04/02 09:08:50;;;;;;;;;;;10.90;73.70;;;;;;4998700;28;19914;-59
2022/04/02 09:11:21;;;;;;;;;;;10.90;73.60;;;;;;5001692;28;19936;-60
2022/04/02 09:13:47;;;;;;;;;;;11.00;72.90;;;;;;5000398;28;19914;-59
2022/04/02 09:16:33;;;;;;;;;;;11.10;72.60;;;;;;5002016;28;19920;-64
2022/04/02 09:19:01;;;;;;;;;;;11.20;71.80;;;;;;4999221;28;19917;-60
2022/04/02 09:21:29;;;;;;;;;;;11.10;73.10;;;;;;5001057;28;19937;-57
2022/04/02 09:24:03;;;;;;;;;;;11.00;73.60;;;;;;4999835;28;19920;-62
2022/04/02 09:26:48;;;;;;;;;;;11.00;73.00;;;;;;4996699;28;19920;-60
2022/04/02 09:29:23;;;;;;;;;;;10.90;73.10;;;;;;4997856;28;19910;-59
2022/04/02 09:31:55;;;;;;;;;;;11.00;73.90;;;;;;5011954;28;19909;-60
2022/04/02 09:34:39;;;;;;;;;;;11.00;74.40;;;;;;4997861;28;19932;-61
2022/04/02 09:37:13;;;;;;;;;;;11.00;74.00;;;;;;4995692;28;19981;-63
2022/04/02 09:39:45;;;;;;;;;;;11.00;72.00;;;;;;4999471;28;20382;-65
2022/04/02 09:42:22;;;;;;;;;;;11.10;72.00;;;;;;5003156;28;19918;-59
2022/04/02 09:44:56;;;;;;;;;;;11.10;71.30;;;;;;4998843;28;19937;-58
2022/04/02 09:47:34;;;;;;;;;;;11.10;72.10;;;;;;4998679;28;19910;-59
2022/04/02 09:50:05;;;;;;;;;;;11.00;72.30;;;;;;4997633;28;20693;-60
2022/04/02 09:52:32;;;;;;;;;;;11.00;73.00;;;;;;4995638;28;19924;-59
2022/04/02 09:55:05;;;;;;;;;;;11.00;71.90;;;;;;4997274;28;19914;-62
2022/04/02 09:57:38;;;;;;;;;;;10.90;69.50;;;;;;4996399;28;20671;-58
2022/04/02 10:00:08;;;;;;;;;;;10.80;69.10;;;;;;4996424;28;20020;-58
2022/04/02 10:03:00;;;;;;;;;;;10.80;69.70;;;;;;4995923;28;19973;-58
2022/04/02 10:05:35;;;;;;;;;;;10.80;70.80;;;;;;4996958;28;19910;-57
2022/04/02 10:08:04;;;;;;;;;;;10.90;70.00;;;;;;4995322;28;20358;-58
2022/04/02 10:10:30;;;;;;;;;;;11.00;67.60;;;;;;4994907;28;20370;-61
2022/04/02 10:12:56;;;;;;;;;;;11.20;67.00;;;;;;4996568;28;19916;-62
2022/04/02 10:15:23;;;;;;;;;;;11.30;67.10;;;;;;4994696;28;19956;-61
2022/04/02 10:17:51;;;;;;;;;;;11.40;66.80;;;;;;4992428;28;19953;-60
2022/04/02 10:20:18;;;;;;;;;;;11.40;66.20;;;;;;4994580;28;19917;-60
2022/04/02 10:22:45;;;;;;;;;;;11.60;65.80;;;;;;4995365;28;19917;-60
2022/04/02 10:25:12;;;;;;;;;;;11.60;65.70;;;;;;4995908;28;19914;-57
2022/04/02 10:27:39;;;;;;;;;;;11.70;64.90;;;;;;4996317;28;19913;-61
2022/04/02 10:30:06;;;;;;;;;;;11.60;63.80;;;;;;4996234;28;19925;-67
2022/04/02 10:32:50;;;;;;;;;;;11.70;63.90;;;;;;4995205;28;19913;-64
2022/04/02 10:35:15;;;;;;;;;;;11.80;63.80;;;;;;4995489;28;20000;-63
2022/04/02 10:37:44;;;;;;;;;;;12.10;63.10;;;;;;4995478;28;19948;-58
2022/04/02 10:40:11;;;;;;;;;;;12.10;63.20;;;;;;4993466;28;20350;-62
2022/04/02 10:42:50;;;;;;;;;;;12.20;62.80;;;;;;4994391;28;19910;-58
2022/04/02 10:45:17;;;;;;;;;;;12.10;60.70;;;;;;4986114;28;20220;-71
2022/04/02 10:47:45;;;;;;;;;;;12.30;61.10;;;;;;4986448;28;19910;-57
2022/04/02 10:50:11;;;;;;;;;;;12.30;60.30;;;;;;4978794;28;19936;-57
2022/04/02 10:52:37;;;;;;;;;;;12.00;61.00;;;;;;4982386;28;19910;-70
2022/04/02 10:55:03;;;;;;;;;;;12.10;61.00;;;;;;4975536;28;19917;-70
2022/04/02 10:57:29;;;;;;;;;;;12.20;59.30;;;;;;4976529;28;19916;-57
2022/04/02 11:00:09;;;;;;;;;;;12.10;59.40;;;;;;4976079;28;19919;-59
2022/04/02 11:02:39;;;;;;;;;;;12.00;60.10;;;;;;4975350;28;19961;-58
2022/04/02 11:05:05;;;;;;;;;;;12.10;60.60;;;;;;4976933;28;19933;-58
2022/04/02 11:07:34;;;;;;;;;;;12.10;59.10;;;;;;4976955;28;19910;-68
2022/04/02 11:10:00;;;;;;;;;;;12.00;59.40;;;;;;4975570;28;19933;-56
2022/04/02 11:12:30;;;;;;;;;;;11.90;59.50;;;;;;4980462;28;19911;-57
2022/04/02 11:15:06;;;;;;;;;;;11.90;58.50;;;;;;4987166;28;19910;-56
2022/04/02 11:17:33;;;;;;;;;;;11.80;56.50;;;;;;4989181;28;19981;-61
2022/04/02 11:20:01;;;;;;;;;;;11.90;56.00;;;;;;4985678;28;19933;-58
2022/04/02 11:22:29;;;;;;;;;;;11.80;57.50;;;;;;4976634;28;19996;-57
2022/04/02 11:25:03;;;;;;;;;;;11.80;57.50;;;;;;4975025;28;19997;-57
2022/04/02 11:27:29;;;;;;;;;;;11.80;57.30;;;;;;4977130;28;19914;-57
2022/04/02 11:30:00;;;;;;;;;;;11.70;58.90;;;;;;4979633;28;19910;-62
2022/04/02 11:32:26;;;;;;;;;;;11.30;68.40;;;;;;4980947;28;19917;-56
2022/04/02 11:34:52;;;;;;;;;;;10.90;70.10;;;;;;4983177;28;20008;-59
2022/04/02 11:37:29;;;;;;;;;;;10.70;71.10;;;;;;4979376;28;19918;-58
2022/04/02 11:39:57;;;;;;;;;;;10.70;72.50;;;;;;4978598;28;19925;-62
2022/04/02 11:42:26;;;;;;;;;;;10.70;70.30;;;;;;4994626;28;20380;-59
2022/04/02 11:44:52;;;;;;;;;;;10.70;71.70;;;;;;4993279;28;19917;-56
2022/04/02 11:47:28;;;;;;;;;;;10.90;71.20;;;;;;4987100;28;19918;-64
2022/04/02 11:50:01;;;;;;;;;;;10.90;70.80;;;;;;4990716;28;19965;-57
2022/04/02 11:52:27;;;;;;;;;;;10.70;72.00;;;;;;4993714;28;20401;-57
2022/04/02 11:54:52;;;;;;;;;;;10.50;72.30;;;;;;4997040;28;19910;-62
2022/04/02 11:57:18;;;;;;;;;;;10.30;73.00;;;;;;4997952;28;20308;-57
2022/04/02 11:59:50;;;;;;;;;;;10.20;74.30;;;;;;4997808;28;19918;-58
2022/04/02 12:02:52;;;;;;;;;;;10.20;74.50;;;;;;4997018;28;19918;-62
2022/04/02 12:05:17;;;;;;;;;;;10.40;74.30;;;;;;4989750;28;19910;-58
2022/04/02 12:07:44;;;;;;;;;;;10.50;73.30;;;;;;4993783;28;19910;-58
2022/04/02 12:10:23;;;;;;;;;;;10.40;73.90;;;;;;4996814;28;19916;-58
2022/04/02 12:12:51;;;;;;;;;;;10.20;74.50;;;;;;4994478;28;20293;-58
2022/04/02 12:15:17;;;;;;;;;;;10.20;74.60;;;;;;4997691;28;19950;-58
2022/04/02 12:17:47;;;;;;;;;;;10.10;73.30;;;;;;4996496;28;20039;-59
2022/04/02 12:20:17;;;;;;;;;;;10.30;74.20;;;;;;4990621;28;20367;-59
2022/04/02 12:22:46;;;;;;;;;;;10.40;73.30;;;;;;5001935;28;20021;-60
2022/04/02 12:25:18;;;;;;;;;;;10.30;73.40;;;;;;5012425;28;19917;-58
2022/04/02 12:27:49;;;;;;;;;;;10.10;73.40;;;;;;5015812;28;20381;-58
2022/04/02 12:30:19;;;;;;;;;;;10.10;73.60;;;;;;5012041;28;19996;-58
2022/04/02 12:32:44;;;;;;;;;;;10.10;74.30;;;;;;5002296;28;19916;-61
2022/04/02 12:35:11;;;;;;;;;;;10.40;73.30;;;;;;5002436;28;20000;-60
2022/04/02 12:37:41;;;;;;;;;;;10.40;71.20;;;;;;5001440;28;19956;-58
2022/04/02 12:40:24;;;;;;;;;;;10.60;70.90;;;;;;5000643;28;19944;-58
2022/04/02 12:42:53;;;;;;;;;;;10.70;71.30;;;;;;5001025;28;19910;-60
2022/04/02 12:45:21;;;;;;;;;;;10.80;70.00;;;;;;5001902;28;20265;-57
2022/04/02 12:47:55;;;;;;;;;;;10.70;68.80;;;;;;5001746;28;19939;-58
2022/04/02 12:50:21;;;;;;;;;;;10.70;67.80;;;;;;4999295;28;19914;-58
2022/04/02 12:52:48;;;;;;;;;;;10.60;69.30;;;;;;5001224;28;19921;-58
2022/04/02 12:55:18;;;;;;;;;;;10.60;68.50;;;;;;5001680;28;19914;-61
2022/04/02 12:57:55;;;;;;;;;;;10.70;68.10;;;;;;5007112;28;19929;-71
2022/04/02 13:00:25;;;;;;;;;;;10.70;67.10;;;;;;5005097;28;19921;-71
2022/04/02 13:02:54;;;;;;;;;;;10.90;66.00;;;;;;5006525;28;19909;-71
2022/04/02 13:05:20;;;;;;;;;;;11.10;65.40;;;;;;5006431;28;19914;-70
2022/04/02 13:08:12;;;;;;;;;;;11.00;65.20;;;;;;5001445;28;20021;-58
2022/04/02 13:10:43;;;;;;;;;;;10.90;65.40;;;;;;4990022;28;19921;-62
2022/04/02 13:13:11;;;;;;;;;;;10.90;65.60;;;;;;5004884;28;20433;-69
2022/04/02 13:15:37;;;;;;;;;;;10.80;64.60;;;;;;5001145;28;19917;-62
2022/04/02 13:20:47;;;;;;;;;;;10.90;65.30;;;;;;4997593;28;19925;-58
2022/04/02 13:23:36;;;;;;;;;;;11.10;64.20;;;;;;4999292;28;19918;-58
2022/04/02 13:26:05;;;;;;;;;;;11.30;63.90;;;;;;4989755;28;20309;-66
2022/04/02 13:28:53;;;;;;;;;;;11.50;63.50;;;;;;4999374;28;19918;-69
2022/04/02 13:31:24;;;;;;;;;;;11.50;60.20;;;;;;5011843;28;19910;-66
2022/04/02 13:33:50;;;;;;;;;;;11.50;58.70;;;;;;5004656;28;19985;-69
2022/04/02 13:36:23;;;;;;;;;;;11.60;60.20;;;;;;5005310;28;19914;-69
2022/04/02 13:39:01;;;;;;;;;;;11.70;60.30;;;;;;5003958;28;19928;-61
2022/04/02 13:41:27;;;;;;;;;;;11.80;60.80;;;;;;5003061;28;19920;-62
2022/04/02 13:43:54;;;;;;;;;;;11.80;60.90;;;;;;4998706;28;20000;-63
2022/04/02 13:46:29;;;;;;;;;;;11.90;62.60;;;;;;4999194;28;19910;-61
2022/04/02 13:48:56;;;;;;;;;;;11.90;60.50;;;;;;4995057;28;19914;-64
2022/04/02 13:51:39;;;;;;;;;;;11.60;61.80;;;;;;4999015;28;19916;-61
2022/04/02 13:54:06;;;;;;;;;;;11.30;63.10;;;;;;4999606;28;20385;-61
2022/04/02 13:56:34;;;;;;;;;;;11.20;64.10;;;;;;4996919;28;20357;-60
2022/04/02 13:59:00;;;;;;;;;;;11.40;64.90;;;;;;4995425;28;20014;-62
2022/04/02 14:01:26;;;;;;;;;;;11.50;64.60;;;;;;4994883;28;20018;-59
2022/04/02 14:04:11;;;;;;;;;;;11.10;65.90;;;;;;5000497;28;19910;-59
2022/04/02 14:06:40;;;;;;;;;;;11.00;68.50;;;;;;4996058;28;19917;-62
2022/04/02 14:09:07;;;;;;;;;;;11.20;65.90;;;;;;4998338;28;19909;-66
2022/04/02 14:11:37;;;;;;;;;;;11.30;66.50;;;;;;4997377;28;19914;-63
2022/04/02 14:14:06;;;;;;;;;;;11.30;65.60;;;;;;4996417;28;19992;-62
2022/04/02 14:16:33;;;;;;;;;;;11.20;65.30;;;;;;5002566;28;19956;-65
2022/04/02 14:19:02;;;;;;;;;;;11.20;65.60;;;;;;5000417;28;19926;-67
2022/04/02 14:21:28;;;;;;;;;;;11.10;65.50;;;;;;5001213;28;19953;-62
2022/04/02 14:24:17;;;;;;;;;;;11.00;65.60;;;;;;5001762;28;19917;-61
2022/04/02 14:27:02;;;;;;;;;;;10.80;66.30;;;;;;5001366;28;19917;-60
2022/04/02 14:29:35;;;;;;;;;;;10.70;66.90;;;;;;4999213;28;19969;-58